Ocean Exporter — VRXJ4 — position and weather

sailwx.info

Track history (hours):
 
Tides and Currents Weather Stations Pressure Air Temp Water Temp Dewpoint Dewpoint Depression Visibility Wind Speed Wind Dir Waves Ship Positions

Ocean Exporter

Last reported at 2018-Feb-22 00:56 UTC. Time now 2018-Feb-22 19:02 UTC.
Position N 39°44' E 018°35'.

Length 169 m; draft 7.9 m.

Type: Cargo ship. MMSI: 477980000.

Date/timePositionNaut miles runAvg speedWind from/ knotsBaromVisibWave heightAir tempDewpointWater temp
2018-Feb-22 00:56N 39°44' E 018°35'613.1
2018-Feb-22 00:30N 39°49' E 018°40'613.0
2018-Feb-22 00:00N 39°55' E 018°40'38012.9
2018-Feb-20 18:26N 44°40' E 012°60'613.0
2018-Feb-20 17:56N 44°47' E 012°58'612.4
2018-Feb-20 17:29N 44°51' E 012°53'612.7
2018-Feb-20 17:00N 44°57' E 012°49'612.8
2018-Feb-20 16:30N 45°02' E 012°45'712.6
2018-Feb-20 16:00N 45°08' E 012°39'612.4
2018-Feb-20 15:30N 45°11' E 012°33'612.1
2018-Feb-20 15:00N 45°17' E 012°28'5 9.3
2018-Feb-20 14:30N 45°19' E 012°23'5 8.9
2018-Feb-20 14:00N 45°21' E 012°17'4 8.0
2018-Feb-20 13:30N 45°25' E 012°16'3 5.4
2018-Feb-20 12:58N 45°27' E 012°16'0 0.6
2018-Feb-20 12:28N 45°28' E 012°15'0 0.0
2018-Feb-20 11:49N 45°28' E 012°15'0 0.0
2018-Feb-20 11:28N 45°28' E 012°15'0 0.0
2018-Feb-20 10:58N 45°28' E 012°15'0 0.0
2018-Feb-20 10:28N 45°28' E 012°15'0 0.0
2018-Feb-20 08:22N 45°28' E 012°15'0 0.0
2018-Feb-20 07:43N 45°28' E 012°15'0 0.0
2018-Feb-20 07:30N 45°28' E 012°15'0 0.0
2018-Feb-20 07:00N 45°28' E 012°15'0 0.0
2018-Feb-20 06:30N 45°28' E 012°15'0 0.0
2018-Feb-20 05:57N 45°28' E 012°15'0 0.0
2018-Feb-20 05:27N 45°28' E 012°15'0 0.0
2018-Feb-20 04:57N 45°28' E 012°15'0 0.0
2018-Feb-20 04:27N 45°28' E 012°15'0 0.0
2018-Feb-20 03:51N 45°28' E 012°15'0 0.0
2018-Feb-20 03:30N 45°28' E 012°15'0 0.0
2018-Feb-20 02:57N 45°28' E 012°15'0 0.0
2018-Feb-20 02:27N 45°28' E 012°15'0 0.0
2018-Feb-20 01:57N 45°28' E 012°15'0 0.0
2018-Feb-20 01:27N 45°28' E 012°15'0 0.0
2018-Feb-20 00:57N 45°28' E 012°15'0 0.0
2018-Feb-20 00:21N 45°28' E 012°15'0 0.0
2018-Feb-19 23:57N 45°28' E 012°15'0 0.0
2018-Feb-19 23:27N 45°28' E 012°15'0 0.0
2018-Feb-19 22:51N 45°28' E 012°15'0 0.0
2018-Feb-19 22:27N 45°28' E 012°15'0 0.0
2018-Feb-19 21:57N 45°28' E 012°15'0 0.0
2018-Feb-19 21:21N 45°28' E 012°15'0 0.0
2018-Feb-19 20:57N 45°28' E 012°15'0 0.0
2018-Feb-19 20:21N 45°28' E 012°15'0 0.0
2018-Feb-19 19:51N 45°28' E 012°15'0 0.0
2018-Feb-19 19:27N 45°28' E 012°15'0 0.0
2018-Feb-19 18:39N 45°28' E 012°15'0 0.0
2018-Feb-19 18:27N 45°28' E 012°15'0 0.0
2018-Feb-19 17:54N 45°28' E 012°15'0 0.0
2018-Feb-19 17:27N 45°28' E 012°15'0 0.0
2018-Feb-19 17:00N 45°28' E 012°15'0 0.0
2018-Feb-19 16:27N 45°28' E 012°15'0 0.0
2018-Feb-19 16:00N 45°28' E 012°15'0 0.0
2018-Feb-19 15:27N 45°28' E 012°15'0 0.0
2018-Feb-19 14:45N 45°28' E 012°15'0 0.0
2018-Feb-19 14:21N 45°28' E 012°15'0 0.0
2018-Feb-19 13:51N 45°28' E 012°15'0 0.0
2018-Feb-19 13:30N 45°28' E 012°15'0 0.0
2018-Feb-19 13:00N 45°28' E 012°15'0 0.0
2018-Feb-19 12:30N 45°28' E 012°15'0 0.0
2018-Feb-19 12:00N 45°28' E 012°15'0 0.0
2018-Feb-19 11:30N 45°28' E 012°15'0 0.0
2018-Feb-19 10:48N 45°28' E 012°15'0 0.0
2018-Feb-19 10:30N 45°28' E 012°15'0 0.0
2018-Feb-19 07:42N 45°28' E 012°15'0 0.0
2018-Feb-19 07:30N 45°28' E 012°15'1 2.0
2018-Feb-19 07:00N 45°27' E 012°16'3 6.7
2018-Feb-19 06:30N 45°23' E 012°16'4 7.0
2018-Feb-19 05:59N 45°20' E 012°18'3 6.8
2018-Feb-19 05:29N 45°19' E 012°23'1 1.4
2018-Feb-19 05:00N 45°19' E 012°24'2 3.0
2018-Feb-19 04:30N 45°19' E 012°26'3 5.8
2018-Feb-19 04:00N 45°20' E 012°30'3 6.6
2018-Feb-19 03:30N 45°22' E 012°26'1 1.2
2018-Feb-19 03:00N 45°22' E 012°26'0 0.0
2018-Feb-19 02:30N 45°22' E 012°26'0 0.0
2018-Feb-19 02:00N 45°22' E 012°26'0 0.0
2018-Feb-19 01:30N 45°22' E 012°26'0 0.0
2018-Feb-19 01:00N 45°22' E 012°26'0 0.0
2018-Feb-19 00:30N 45°22' E 012°26'0 0.0
2018-Feb-19 00:00N 45°22' E 012°26'0 0.0
2018-Feb-18 23:30N 45°22' E 012°26'0 0.0
2018-Feb-18 22:59N 45°22' E 012°26'0 0.0
2018-Feb-18 22:27N 45°22' E 012°26'0 0.0
2018-Feb-18 21:59N 45°22' E 012°26'0 0.0
2018-Feb-18 21:29N 45°22' E 012°26'0 0.3
2018-Feb-18 20:59N 45°22' E 012°26'2 4.1
2018-Feb-18 20:30N 45°23' E 012°29'3 5.7
2018-Feb-18 20:00N 45°21' E 012°32'4 8.1
2018-Feb-18 19:30N 45°17' E 012°33'4 8.2
2018-Feb-18 19:00N 45°14' E 012°37'4 7.6
2018-Feb-18 18:30N 45°12' E 012°41'4 8.6
2018-Feb-18 18:00N 45°09' E 012°46'4 8.6
2018-Feb-18 17:30N 45°07' E 012°51'3 6.2
2018-Feb-18 17:00N 45°04' E 012°54'3 6.3
2018-Feb-18 16:30N 45°02' E 012°56'3 6.5
2018-Feb-18 15:59N 44°59' E 012°60'5 7.8
2018-Feb-18 15:24N 44°56' E 013°04'410.3
2018-Feb-18 15:00N 44°52' E 013°07'5 9.8
2018-Feb-18 14:30N 44°47' E 013°08'5 9.6
2018-Feb-18 14:00N 44°43' E 013°09'5 9.0
2018-Feb-18 13:30N 44°38' E 013°10'4 8.4
2018-Feb-18 12:59N 44°34' E 013°10'4 8.2
2018-Feb-18 12:29N 44°30' E 013°11'4 7.9
2018-Feb-18 11:55N 44°25' E 013°12'4 8.8
2018-Feb-18 11:29N 44°22' E 013°13'273 9.1
2018-Feb-17 05:31N 41°12' E 017°41'010.2
2018-Feb-17 05:30N 41°12' E 017°41'710.3
2018-Feb-17 04:52N 41°07' E 017°47'410.0
2018-Feb-17 04:30N 41°05' E 017°50'610.2
2018-Feb-17 03:58N 41°01' E 017°55'710.2
2018-Feb-17 03:17N 40°56' E 018°02'310.2
2018-Feb-17 03:00N 40°54' E 018°05'510.1
2018-Feb-17 02:30N 40°50' E 018°10'510.3
2018-Feb-17 02:00N 40°47' E 018°14'610.1
2018-Feb-17 01:24N 40°42' E 018°20'4 9.9
2018-Feb-17 01:00N 40°39' E 018°24'510.0
2018-Feb-17 00:30N 40°36' E 018°28'610.3
2018-Feb-16 23:54N 40°32' E 018°34'1110.2
2018-Feb-16 22:47N 40°21' E 018°38'310.7
2018-Feb-16 22:30N 40°18' E 018°38'510.5
2018-Feb-16 22:00N 40°13' E 018°39'5 9.8
2018-Feb-16 21:30N 40°08' E 018°39'5 9.1
2018-Feb-16 21:00N 40°03' E 018°39'5 9.3
2018-Feb-16 20:30N 39°58' E 018°39'510.0
2018-Feb-16 20:00N 39°53' E 018°38'510.3
2018-Feb-16 19:30N 39°48' E 018°38'5 9.9
2018-Feb-16 19:00N 39°43' E 018°37'5 9.7
2018-Feb-16 18:30N 39°38' E 018°37'266 8.5
2018-Feb-15 11:00N 36°26' E 014°43'611.1
2018-Feb-15 10:30N 36°26' E 014°36'510.8
2018-Feb-15 10:00N 36°27' E 014°29'610.7
2018-Feb-15 09:28N 36°27' E 014°22'510.6
2018-Feb-15 08:59N 36°27' E 014°16'510.5
2018-Feb-15 08:30N 36°27' E 014°09'510.5
2018-Feb-15 07:59N 36°27' E 014°03'510.3
2018-Feb-15 07:30N 36°27' E 013°56'610.2
2018-Feb-15 06:58N 36°27' E 013°50'610.3
2018-Feb-15 06:25N 36°27' E 013°43'410.0
2018-Feb-15 06:00N 36°27' E 013°37'  
Track history (hours):
 
Tides and Currents Weather Stations Pressure Air Temp Water Temp Dewpoint Dewpoint Depression Visibility Wind Speed Wind Dir Waves Ship Positions

Ocean Exporter

Last reported at 2018-Feb-22 00:56 UTC. Time now 2018-Feb-22 19:02 UTC.
Position N 39°44' E 018°35'.

Length 169 m; draft 7.9 m.

Type: Cargo ship. MMSI: 477980000.

Date/timePositionNaut miles runAvg speedWind from/ knotsBaromVisibWave heightAir tempDewpointWater temp
2018-Feb-22 00:56N 39°44' E 018°35'613.1
2018-Feb-22 00:30N 39°49' E 018°40'613.0
2018-Feb-22 00:00N 39°55' E 018°40'38012.9
2018-Feb-20 18:26N 44°40' E 012°60'613.0
2018-Feb-20 17:56N 44°47' E 012°58'612.4
2018-Feb-20 17:29N 44°51' E 012°53'612.7
2018-Feb-20 17:00N 44°57' E 012°49'612.8
2018-Feb-20 16:30N 45°02' E 012°45'712.6
2018-Feb-20 16:00N 45°08' E 012°39'612.4
2018-Feb-20 15:30N 45°11' E 012°33'612.1
2018-Feb-20 15:00N 45°17' E 012°28'5 9.3
2018-Feb-20 14:30N 45°19' E 012°23'5 8.9
2018-Feb-20 14:00N 45°21' E 012°17'4 8.0
2018-Feb-20 13:30N 45°25' E 012°16'3 5.4
2018-Feb-20 12:58N 45°27' E 012°16'0 0.6
2018-Feb-20 12:28N 45°28' E 012°15'0 0.0
2018-Feb-20 11:49N 45°28' E 012°15'0 0.0
2018-Feb-20 11:28N 45°28' E 012°15'0 0.0
2018-Feb-20 10:58N 45°28' E 012°15'0 0.0
2018-Feb-20 10:28N 45°28' E 012°15'0 0.0
2018-Feb-20 08:22N 45°28' E 012°15'0 0.0
2018-Feb-20 07:43N 45°28' E 012°15'0 0.0
2018-Feb-20 07:30N 45°28' E 012°15'0 0.0
2018-Feb-20 07:00N 45°28' E 012°15'0 0.0
2018-Feb-20 06:30N 45°28' E 012°15'0 0.0
2018-Feb-20 05:57N 45°28' E 012°15'0 0.0
2018-Feb-20 05:27N 45°28' E 012°15'0 0.0
2018-Feb-20 04:57N 45°28' E 012°15'0 0.0
2018-Feb-20 04:27N 45°28' E 012°15'0 0.0
2018-Feb-20 03:51N 45°28' E 012°15'0 0.0
2018-Feb-20 03:30N 45°28' E 012°15'0 0.0
2018-Feb-20 02:57N 45°28' E 012°15'0 0.0
2018-Feb-20 02:27N 45°28' E 012°15'0 0.0
2018-Feb-20 01:57N 45°28' E 012°15'0 0.0
2018-Feb-20 01:27N 45°28' E 012°15'0 0.0
2018-Feb-20 00:57N 45°28' E 012°15'0 0.0
2018-Feb-20 00:21N 45°28' E 012°15'0 0.0
2018-Feb-19 23:57N 45°28' E 012°15'0 0.0
2018-Feb-19 23:27N 45°28' E 012°15'0 0.0
2018-Feb-19 22:51N 45°28' E 012°15'0 0.0
2018-Feb-19 22:27N 45°28' E 012°15'0 0.0
2018-Feb-19 21:57N 45°28' E 012°15'0 0.0
2018-Feb-19 21:21N 45°28' E 012°15'0 0.0
2018-Feb-19 20:57N 45°28' E 012°15'0 0.0
2018-Feb-19 20:21N 45°28' E 012°15'0 0.0
2018-Feb-19 19:51N 45°28' E 012°15'0 0.0
2018-Feb-19 19:27N 45°28' E 012°15'0 0.0
2018-Feb-19 18:39N 45°28' E 012°15'0 0.0
2018-Feb-19 18:27N 45°28' E 012°15'0 0.0
2018-Feb-19 17:54N 45°28' E 012°15'0 0.0
2018-Feb-19 17:27N 45°28' E 012°15'0 0.0
2018-Feb-19 17:00N 45°28' E 012°15'0 0.0
2018-Feb-19 16:27N 45°28' E 012°15'0 0.0
2018-Feb-19 16:00N 45°28' E 012°15'0 0.0
2018-Feb-19 15:27N 45°28' E 012°15'0 0.0
2018-Feb-19 14:45N 45°28' E 012°15'0 0.0
2018-Feb-19 14:21N 45°28' E 012°15'0 0.0
2018-Feb-19 13:51N 45°28' E 012°15'0 0.0
2018-Feb-19 13:30N 45°28' E 012°15'0 0.0
2018-Feb-19 13:00N 45°28' E 012°15'0 0.0
2018-Feb-19 12:30N 45°28' E 012°15'0 0.0
2018-Feb-19 12:00N 45°28' E 012°15'0 0.0
2018-Feb-19 11:30N 45°28' E 012°15'0 0.0
2018-Feb-19 10:48N 45°28' E 012°15'0 0.0
2018-Feb-19 10:30N 45°28' E 012°15'0 0.0
2018-Feb-19 07:42N 45°28' E 012°15'0 0.0
2018-Feb-19 07:30N 45°28' E 012°15'1 2.0
2018-Feb-19 07:00N 45°27' E 012°16'3 6.7
2018-Feb-19 06:30N 45°23' E 012°16'4 7.0
2018-Feb-19 05:59N 45°20' E 012°18'3 6.8
2018-Feb-19 05:29N 45°19' E 012°23'1 1.4
2018-Feb-19 05:00N 45°19' E 012°24'2 3.0
2018-Feb-19 04:30N 45°19' E 012°26'3 5.8
2018-Feb-19 04:00N 45°20' E 012°30'3 6.6
2018-Feb-19 03:30N 45°22' E 012°26'1 1.2
2018-Feb-19 03:00N 45°22' E 012°26'0 0.0
2018-Feb-19 02:30N 45°22' E 012°26'0 0.0
2018-Feb-19 02:00N 45°22' E 012°26'0 0.0
2018-Feb-19 01:30N 45°22' E 012°26'0 0.0
2018-Feb-19 01:00N 45°22' E 012°26'0 0.0
2018-Feb-19 00:30N 45°22' E 012°26'0 0.0
2018-Feb-19 00:00N 45°22' E 012°26'0 0.0
2018-Feb-18 23:30N 45°22' E 012°26'0 0.0
2018-Feb-18 22:59N 45°22' E 012°26'0 0.0
2018-Feb-18 22:27N 45°22' E 012°26'0 0.0
2018-Feb-18 21:59N 45°22' E 012°26'0 0.0
2018-Feb-18 21:29N 45°22' E 012°26'0 0.3
2018-Feb-18 20:59N 45°22' E 012°26'2 4.1
2018-Feb-18 20:30N 45°23' E 012°29'3 5.7
2018-Feb-18 20:00N 45°21' E 012°32'4 8.1
2018-Feb-18 19:30N 45°17' E 012°33'4 8.2
2018-Feb-18 19:00N 45°14' E 012°37'4 7.6
2018-Feb-18 18:30N 45°12' E 012°41'4 8.6
2018-Feb-18 18:00N 45°09' E 012°46'4 8.6
2018-Feb-18 17:30N 45°07' E 012°51'3 6.2
2018-Feb-18 17:00N 45°04' E 012°54'3 6.3
2018-Feb-18 16:30N 45°02' E 012°56'3 6.5
2018-Feb-18 15:59N 44°59' E 012°60'5 7.8
2018-Feb-18 15:24N 44°56' E 013°04'410.3
2018-Feb-18 15:00N 44°52' E 013°07'5 9.8
2018-Feb-18 14:30N 44°47' E 013°08'5 9.6
2018-Feb-18 14:00N 44°43' E 013°09'5 9.0
2018-Feb-18 13:30N 44°38' E 013°10'4 8.4
2018-Feb-18 12:59N 44°34' E 013°10'4 8.2
2018-Feb-18 12:29N 44°30' E 013°11'4 7.9
2018-Feb-18 11:55N 44°25' E 013°12'4 8.8
2018-Feb-18 11:29N 44°22' E 013°13'273 9.1
2018-Feb-17 05:31N 41°12' E 017°41'010.2
2018-Feb-17 05:30N 41°12' E 017°41'710.3
2018-Feb-17 04:52N 41°07' E 017°47'410.0
2018-Feb-17 04:30N 41°05' E 017°50'610.2
2018-Feb-17 03:58N 41°01' E 017°55'710.2
2018-Feb-17 03:17N 40°56' E 018°02'310.2
2018-Feb-17 03:00N 40°54' E 018°05'510.1
2018-Feb-17 02:30N 40°50' E 018°10'510.3
2018-Feb-17 02:00N 40°47' E 018°14'610.1
2018-Feb-17 01:24N 40°42' E 018°20'4 9.9
2018-Feb-17 01:00N 40°39' E 018°24'510.0
2018-Feb-17 00:30N 40°36' E 018°28'610.3
2018-Feb-16 23:54N 40°32' E 018°34'1110.2
2018-Feb-16 22:47N 40°21' E 018°38'310.7
2018-Feb-16 22:30N 40°18' E 018°38'510.5
2018-Feb-16 22:00N 40°13' E 018°39'5 9.8
2018-Feb-16 21:30N 40°08' E 018°39'5 9.1
2018-Feb-16 21:00N 40°03' E 018°39'5 9.3
2018-Feb-16 20:30N 39°58' E 018°39'510.0
2018-Feb-16 20:00N 39°53' E 018°38'510.3
2018-Feb-16 19:30N 39°48' E 018°38'5 9.9
2018-Feb-16 19:00N 39°43' E 018°37'5 9.7
2018-Feb-16 18:30N 39°38' E 018°37'266 8.5
2018-Feb-15 11:00N 36°26' E 014°43'611.1
2018-Feb-15 10:30N 36°26' E 014°36'510.8
2018-Feb-15 10:00N 36°27' E 014°29'610.7
2018-Feb-15 09:28N 36°27' E 014°22'510.6
2018-Feb-15 08:59N 36°27' E 014°16'510.5
2018-Feb-15 08:30N 36°27' E 014°09'510.5
2018-Feb-15 07:59N 36°27' E 014°03'510.3
2018-Feb-15 07:30N 36°27' E 013°56'610.2
2018-Feb-15 06:58N 36°27' E 013°50'610.3
2018-Feb-15 06:25N 36°27' E 013°43'410.0
2018-Feb-15 06:00N 36°27' E 013°37'  

Dump ship's entire track history